createdAt,value
2017-06-04T00:01:50.759Z,41.20
2017-06-04T00:04:18.308Z,41.00
2017-06-04T00:06:45.853Z,41.10
2017-06-04T00:09:13.391Z,41.60
2017-06-04T00:11:40.924Z,41.30
2017-06-04T00:14:08.469Z,41.60
2017-06-04T00:16:36.008Z,41.60
2017-06-04T00:19:03.546Z,41.30
2017-06-04T00:21:31.085Z,41.30
2017-06-04T00:23:59.403Z,40.70
2017-06-04T00:26:26.944Z,41.00
2017-06-04T00:28:54.548Z,41.30
2017-06-04T00:31:22.084Z,41.50
2017-06-04T00:33:49.619Z,41.60
2017-06-04T00:36:17.200Z,41.60
2017-06-04T00:38:44.744Z,41.60
2017-06-04T00:41:12.280Z,41.70
2017-06-04T00:43:40.583Z,42.10
2017-06-04T00:46:08.124Z,42.10
2017-06-04T00:48:36.425Z,42.10
2017-06-04T00:51:03.972Z,42.10
2017-06-04T00:53:31.507Z,42.00
2017-06-04T00:55:59.812Z,42.60
2017-06-04T00:58:27.353Z,42.60
2017-06-04T01:00:54.887Z,42.30
2017-06-04T01:03:22.438Z,42.50
2017-06-04T01:05:49.975Z,42.50
2017-06-04T01:08:17.513Z,43.00
2017-06-04T01:10:45.058Z,43.00
2017-06-04T01:13:12.595Z,43.00
2017-06-04T01:15:40.911Z,43.70
2017-06-04T01:18:08.455Z,43.50
2017-06-04T01:20:35.996Z,43.40
2017-06-04T01:23:04.326Z,43.10
2017-06-04T01:25:31.862Z,43.00
2017-06-04T01:27:59.411Z,43.00
2017-06-04T01:30:26.943Z,43.10
2017-06-04T01:32:55.255Z,43.70
2017-06-04T01:35:22.795Z,43.60
2017-06-04T01:37:50.336Z,43.90
2017-06-04T01:40:18.685Z,43.60
2017-06-04T01:42:46.235Z,44.20
2017-06-04T01:45:13.768Z,43.90
2017-06-04T01:47:41.316Z,43.70
2017-06-04T01:50:08.859Z,43.80
2017-06-04T01:52:36.407Z,44.10
2017-06-04T01:55:04.713Z,43.90
2017-06-04T01:57:32.264Z,43.90
2017-06-04T01:59:59.807Z,43.90
2017-06-04T02:02:27.369Z,43.90
2017-06-04T02:04:54.927Z,44.20
2017-06-04T02:07:22.471Z,44.50
2017-06-04T02:09:50.784Z,44.10
2017-06-04T02:12:18.327Z,43.90
2017-06-04T02:14:45.876Z,44.60
2017-06-04T02:17:13.423Z,44.40
2017-06-04T02:19:41.743Z,44.80
2017-06-04T02:22:09.299Z,44.70
2017-06-04T02:24:36.840Z,44.70
2017-06-04T02:27:04.383Z,44.50
2017-06-04T02:29:32.703Z,44.50
2017-06-04T02:32:00.243Z,44.50
2017-06-04T02:34:27.791Z,44.50
2017-06-04T02:36:55.332Z,44.40
2017-06-04T02:39:23.644Z,44.20
2017-06-04T02:41:51.193Z,44.10
2017-06-04T02:44:18.732Z,44.20
2017-06-04T02:46:46.351Z,44.00
2017-06-04T02:49:13.887Z,44.20
2017-06-04T02:51:41.455Z,44.30
2017-06-04T02:54:09.019Z,44.60
2017-06-04T02:56:36.558Z,44.20
2017-06-04T02:59:04.100Z,44.90
2017-06-04T03:01:31.643Z,45.00
2017-06-04T03:03:59.188Z,45.40
2017-06-04T03:06:27.528Z,45.20
2017-06-04T03:08:55.083Z,45.10
2017-06-04T03:11:22.680Z,45.70
2017-06-04T03:13:50.992Z,46.10
2017-06-04T03:16:18.531Z,46.10
2017-06-04T03:18:46.081Z,45.70
2017-06-04T03:21:14.392Z,45.20
2017-06-04T03:23:41.948Z,45.10
2017-06-04T03:26:09.488Z,45.40
2017-06-04T03:28:37.026Z,45.60
2017-06-04T03:31:05.344Z,45.40
2017-06-04T03:33:32.891Z,45.30
2017-06-04T03:36:00.427Z,46.00
2017-06-04T03:38:28.043Z,46.20
2017-06-04T03:40:55.586Z,45.40
2017-06-04T03:43:23.143Z,45.20
2017-06-04T03:45:50.675Z,45.00
2017-06-04T03:48:18.215Z,45.50
2017-06-04T03:50:46.524Z,45.60
2017-06-04T03:53:14.062Z,45.50
2017-06-04T03:55:41.616Z,45.20
2017-06-04T03:58:09.919Z,45.30
2017-06-04T04:00:37.466Z,45.20
2017-06-04T04:03:05.009Z,45.30
2017-06-04T04:05:33.317Z,45.10
2017-06-04T04:08:00.892Z,45.00
2017-06-04T04:10:28.440Z,44.90
2017-06-04T04:12:55.983Z,45.00
2017-06-04T04:15:23.525Z,44.90
2017-06-04T04:17:51.074Z,44.70
2017-06-04T04:20:19.396Z,44.90
2017-06-04T04:22:46.940Z,44.80
2017-06-04T04:25:14.493Z,44.90
2017-06-04T04:27:42.043Z,45.00
2017-06-04T04:30:09.592Z,45.10
2017-06-04T04:32:37.916Z,45.10
2017-06-04T04:35:05.457Z,45.00
2017-06-04T04:37:32.998Z,45.00
2017-06-04T04:40:00.543Z,45.00
2017-06-04T04:42:28.849Z,45.00
2017-06-04T04:44:56.399Z,45.00
2017-06-04T04:47:23.936Z,45.00
2017-06-04T04:49:52.254Z,44.40
2017-06-04T04:52:19.801Z,44.30
2017-06-04T04:54:47.347Z,44.70
2017-06-04T04:57:14.901Z,44.50
2017-06-04T04:59:42.439Z,44.40
2017-06-04T05:02:10.753Z,44.40
2017-06-04T05:04:38.292Z,44.30
2017-06-04T05:07:06.515Z,44.30
2017-06-04T05:09:34.081Z,44.30
2017-06-04T05:12:01.629Z,43.90
2017-06-04T05:14:29.167Z,43.80
2017-06-04T05:16:56.711Z,43.70
2017-06-04T05:19:24.259Z,42.90
2017-06-04T05:21:51.807Z,43.30
2017-06-04T05:24:20.117Z,42.70
2017-06-04T05:26:47.657Z,42.70
2017-06-04T05:29:15.199Z,42.90
2017-06-04T05:31:43.500Z,42.60
2017-06-04T05:34:11.048Z,42.60
2017-06-04T05:36:38.599Z,42.40
2017-06-04T05:39:06.192Z,41.70
2017-06-04T05:41:33.736Z,42.10
2017-06-04T05:44:01.276Z,42.20
2017-06-04T05:46:28.829Z,42.60
2017-06-04T05:48:57.138Z,41.70
2017-06-04T05:51:24.717Z,41.50
2017-06-04T05:53:52.260Z,41.30
2017-06-04T05:56:19.803Z,41.50
2017-06-04T05:58:47.352Z,41.20
2017-06-04T06:01:14.888Z,40.60
2017-06-04T06:03:43.239Z,39.70
2017-06-04T06:06:10.795Z,39.80
2017-06-04T06:08:38.345Z,40.10
2017-06-04T06:11:05.907Z,39.70
2017-06-04T06:13:33.444Z,39.40
2017-06-04T06:16:00.991Z,39.30
2017-06-04T06:18:28.543Z,39.10
2017-06-04T06:20:56.083Z,38.90
2017-06-04T06:23:24.396Z,40.30
2017-06-04T06:25:51.940Z,40.20
2017-06-04T06:28:19.479Z,40.00
2017-06-04T06:30:47.785Z,39.90
2017-06-04T06:33:15.336Z,39.90
2017-06-04T06:35:42.892Z,39.90
2017-06-04T06:38:10.442Z,40.20
2017-06-04T06:40:37.984Z,39.80
2017-06-04T06:43:06.296Z,39.70
2017-06-04T06:45:33.847Z,39.70
2017-06-04T06:48:01.400Z,39.60
2017-06-04T06:50:28.943Z,39.60
2017-06-04T06:52:57.252Z,39.60
2017-06-04T06:55:24.792Z,39.60
2017-06-04T06:57:52.343Z,39.80
2017-06-04T07:00:19.897Z,39.90
2017-06-04T07:02:48.204Z,40.40
2017-06-04T07:05:15.751Z,40.30
2017-06-04T07:07:43.291Z,40.90
2017-06-04T07:10:10.852Z,40.30
2017-06-04T07:12:38.400Z,40.30
2017-06-04T07:15:06.699Z,40.40
2017-06-04T07:17:34.239Z,40.40
2017-06-04T07:20:02.546Z,40.70
2017-06-04T07:22:30.087Z,40.70
2017-06-04T07:24:57.639Z,40.00
2017-06-04T07:27:25.188Z,39.80
2017-06-04T07:29:53.492Z,40.60
2017-06-04T07:32:21.049Z,40.50
2017-06-04T07:34:48.583Z,40.50
2017-06-04T07:37:16.927Z,41.40
2017-06-04T07:39:45.095Z,41.30
2017-06-04T07:42:12.645Z,41.00
2017-06-04T07:44:40.290Z,41.20
2017-06-04T07:47:08.260Z,41.20
2017-06-04T07:49:38.427Z,41.00
2017-06-04T07:52:06.741Z,41.40
2017-06-04T07:54:34.280Z,41.10
2017-06-04T07:57:02.586Z,41.40
2017-06-04T07:59:30.119Z,41.40
2017-06-04T08:01:57.672Z,41.20
2017-06-04T08:04:25.978Z,41.80
2017-06-04T08:06:53.520Z,41.70
2017-06-04T08:09:21.067Z,41.70
2017-06-04T08:11:49.371Z,41.60
2017-06-04T08:14:16.923Z,41.60
2017-06-04T08:16:44.464Z,41.60
2017-06-04T08:19:12.007Z,41.50
2017-06-04T08:21:40.316Z,41.50
2017-06-04T08:24:07.860Z,41.40
2017-06-04T08:26:35.411Z,41.10
2017-06-04T08:29:03.722Z,40.60
2017-06-04T08:31:31.264Z,40.60
2017-06-04T08:33:58.808Z,41.40
2017-06-04T08:36:26.351Z,41.80
2017-06-04T08:38:54.680Z,41.40
2017-06-04T08:41:22.220Z,41.40
2017-06-04T08:43:49.772Z,41.70
2017-06-04T08:46:17.316Z,41.00
2017-06-04T08:48:45.622Z,41.30
2017-06-04T08:51:13.176Z,41.20
2017-06-04T08:53:40.707Z,41.20
2017-06-04T08:56:09.009Z,41.30
2017-06-04T08:58:36.545Z,41.20
2017-06-04T09:01:04.860Z,40.40
2017-06-04T09:03:32.431Z,40.40
2017-06-04T09:05:59.971Z,40.60
2017-06-04T09:08:27.516Z,40.70
2017-06-04T09:10:55.055Z,40.60
2017-06-04T09:13:23.361Z,40.40
2017-06-04T09:15:50.913Z,40.20
2017-06-04T09:18:18.463Z,40.70
2017-06-04T09:20:46.059Z,40.60
2017-06-04T09:23:13.592Z,40.30
2017-06-04T09:25:41.126Z,40.40
2017-06-04T09:28:09.443Z,40.50
2017-06-04T09:30:36.983Z,40.50
2017-06-04T09:33:04.532Z,40.20
2017-06-04T09:35:32.067Z,40.50
2017-06-04T09:38:00.367Z,40.10
2017-06-04T09:40:27.915Z,40.00
2017-06-04T09:42:55.456Z,40.00
2017-06-04T09:45:23.772Z,40.60
2017-06-04T09:47:51.307Z,40.20
2017-06-04T09:50:19.607Z,39.50
2017-06-04T09:52:47.147Z,39.50
2017-06-04T09:55:14.695Z,40.00
2017-06-04T09:57:42.999Z,40.00
2017-06-04T10:00:10.539Z,39.90
2017-06-04T10:02:38.093Z,39.80
2017-06-04T10:05:06.403Z,41.00
2017-06-04T10:07:33.943Z,40.90
2017-06-04T10:10:01.551Z,41.00
2017-06-04T10:12:29.084Z,41.80
2017-06-04T10:14:56.621Z,41.60
2017-06-04T10:17:24.172Z,41.60
2017-06-04T10:19:51.711Z,41.50
2017-06-04T10:22:20.021Z,40.30
2017-06-04T10:24:47.560Z,40.20
2017-06-04T10:27:15.866Z,39.20
2017-06-04T10:29:43.408Z,39.10
2017-06-04T10:32:10.959Z,38.40
2017-06-04T10:34:38.511Z,38.10
2017-06-04T10:37:06.816Z,38.50
2017-06-04T10:39:34.353Z,38.50
2017-06-04T10:42:01.895Z,39.70
2017-06-04T10:44:30.204Z,39.60
2017-06-04T10:46:57.743Z,39.50
2017-06-04T10:49:25.284Z,40.60
2017-06-04T10:51:53.595Z,41.00
2017-06-04T10:54:21.139Z,40.90
2017-06-04T10:56:48.679Z,42.20
2017-06-04T10:59:16.983Z,44.90
2017-06-04T11:01:44.577Z,44.80
2017-06-04T11:04:12.123Z,45.70
2017-06-04T11:06:39.667Z,46.70
2017-06-04T11:09:07.199Z,46.70
2017-06-04T11:11:35.503Z,48.10
2017-06-04T11:14:03.044Z,48.00
2017-06-04T11:16:30.652Z,47.80
2017-06-04T11:18:58.211Z,47.60
2017-06-04T11:21:25.748Z,47.80
2017-06-04T11:23:53.288Z,46.10
2017-06-04T11:26:20.819Z,46.70
2017-06-04T11:28:49.132Z,46.50
2017-06-04T11:31:16.680Z,46.50
2017-06-04T11:33:44.277Z,46.70
2017-06-04T11:36:11.831Z,46.80
2017-06-04T11:38:39.363Z,46.60
2017-06-04T11:41:06.905Z,46.80
2017-06-04T11:43:34.452Z,46.90
2017-06-04T11:46:02.757Z,46.80
2017-06-04T11:48:30.296Z,46.80
2017-06-04T11:50:58.604Z,46.30
2017-06-04T11:53:26.147Z,46.20
2017-06-04T11:55:54.364Z,46.20
2017-06-04T11:58:21.958Z,45.80
2017-06-04T12:00:50.276Z,45.30
2017-06-04T12:03:17.815Z,45.20
2017-06-04T12:05:45.369Z,44.90
2017-06-04T12:08:12.907Z,45.10
2017-06-04T12:10:42.114Z,43.70
2017-06-04T12:13:09.768Z,43.60
2017-06-04T12:15:39.077Z,42.80
2017-06-04T12:18:07.015Z,42.80
2017-06-04T12:20:34.833Z,42.40
2017-06-04T12:23:02.383Z,41.70
2017-06-04T12:25:30.273Z,42.00
2017-06-04T12:27:58.944Z,42.90
2017-06-04T12:30:26.479Z,42.90
2017-06-04T12:32:54.809Z,42.80
2017-06-04T12:35:22.346Z,42.70
2017-06-04T12:37:49.881Z,41.50
2017-06-04T12:40:17.487Z,41.30
2017-06-04T12:42:45.838Z,40.60
2017-06-04T12:45:13.400Z,40.60
2017-06-04T12:47:40.951Z,40.40
2017-06-04T12:50:08.489Z,40.00
2017-06-04T12:52:36.029Z,40.50
2017-06-04T12:55:04.339Z,42.60
2017-06-04T12:57:31.883Z,42.60
2017-06-04T12:59:59.472Z,42.50
2017-06-04T13:02:27.011Z,43.40
2017-06-04T13:04:54.556Z,43.60
2017-06-04T13:07:22.103Z,44.90
2017-06-04T13:09:50.444Z,45.20
2017-06-04T13:12:17.981Z,45.20
2017-06-04T13:14:45.520Z,45.80
2017-06-04T13:17:13.063Z,45.10
2017-06-04T13:19:41.367Z,45.80
2017-06-04T13:22:09.042Z,45.70
2017-06-04T13:24:37.523Z,46.70
2017-06-04T13:27:05.862Z,46.60
2017-06-04T13:29:34.292Z,47.10
2017-06-04T13:32:01.828Z,47.10
2017-06-04T13:34:29.375Z,47.30
2017-06-04T13:36:56.919Z,46.90
2017-06-04T13:39:24.467Z,46.50
2017-06-04T13:41:52.770Z,48.20
2017-06-04T13:44:20.300Z,48.10
2017-06-04T13:46:48.620Z,48.00
2017-06-04T13:49:16.156Z,48.00
2017-06-04T13:51:44.224Z,47.30
2017-06-04T13:54:12.196Z,46.50
2017-06-04T13:56:39.747Z,45.70
2017-06-04T13:59:07.295Z,46.60
2017-06-04T14:01:35.606Z,47.10
2017-06-04T14:04:03.146Z,47.00
2017-06-04T14:06:30.683Z,47.50
2017-06-04T14:08:58.239Z,47.80
2017-06-04T14:11:26.549Z,48.70
2017-06-04T14:13:54.079Z,48.40
2017-06-04T14:16:22.392Z,49.10
2017-06-04T14:18:49.928Z,49.10
2017-06-04T14:21:17.469Z,49.30
2017-06-04T14:23:45.792Z,50.10
2017-06-04T14:26:13.372Z,50.30
2017-06-04T14:28:40.907Z,52.10
2017-06-04T14:31:08.445Z,53.60
2017-06-04T14:33:36.592Z,54.50
2017-06-04T14:36:05.669Z,55.50
2017-06-04T14:38:33.516Z,55.70
2017-06-04T14:41:01.050Z,57.30
2017-06-04T14:43:28.591Z,59.20
2017-06-04T14:45:57.039Z,61.20
2017-06-04T14:48:24.583Z,62.00
2017-06-04T14:50:52.135Z,62.20
2017-06-04T14:53:19.671Z,62.50
2017-06-04T14:55:47.255Z,65.50
2017-06-04T14:58:14.791Z,67.00
2017-06-04T15:00:42.328Z,66.30
2017-06-04T15:03:09.877Z,66.00
2017-06-04T15:05:37.411Z,66.40
2017-06-04T15:08:04.946Z,67.30
2017-06-04T15:10:32.488Z,67.50
2017-06-04T15:13:00.572Z,67.50
2017-06-04T15:15:28.116Z,68.20
2017-06-04T15:17:56.126Z,68.00
2017-06-04T15:20:23.659Z,68.00
2017-06-04T15:22:51.197Z,67.10
2017-06-04T15:25:18.737Z,68.30
2017-06-04T15:27:46.283Z,67.70
2017-06-04T15:30:13.844Z,67.20
2017-06-04T15:32:41.391Z,66.90
2017-06-04T15:35:09.995Z,66.40
2017-06-04T15:37:37.557Z,66.30
2017-06-04T15:40:05.101Z,66.60
2017-06-04T15:42:32.660Z,66.20
2017-06-04T15:45:00.215Z,66.30
2017-06-04T15:47:27.771Z,66.10
2017-06-04T15:49:56.075Z,67.80
2017-06-04T15:52:23.616Z,67.60
2017-06-04T15:54:51.167Z,68.80
2017-06-04T15:57:19.591Z,68.70
2017-06-04T15:59:48.059Z,68.20
2017-06-04T16:02:15.599Z,68.10
2017-06-04T16:04:43.180Z,69.10
2017-06-04T16:07:10.716Z,68.90
2017-06-04T16:09:38.272Z,67.20
2017-06-04T16:12:05.821Z,67.60
2017-06-04T16:14:34.119Z,67.90
2017-06-04T16:17:01.672Z,67.90
2017-06-04T16:19:29.229Z,68.40
2017-06-04T16:21:56.771Z,67.10
2017-06-04T16:24:25.075Z,65.60
2017-06-04T16:26:52.607Z,65.50
2017-06-04T16:29:20.956Z,63.80
2017-06-04T16:31:48.493Z,63.70
2017-06-04T16:34:16.033Z,63.10
2017-06-04T16:36:43.575Z,61.90
2017-06-04T16:39:11.123Z,62.30
2017-06-04T16:41:40.499Z,64.10
2017-06-04T16:44:08.040Z,64.00
2017-06-04T16:46:35.581Z,63.70
2017-06-04T16:49:03.340Z,64.10
2017-06-04T16:51:31.914Z,62.80
2017-06-04T16:53:59.460Z,63.60
2017-06-04T16:56:27.570Z,64.70
2017-06-04T16:58:55.111Z,65.20
2017-06-04T17:01:22.652Z,64.70
2017-06-04T17:03:50.198Z,64.80
2017-06-04T17:06:17.744Z,65.70
2017-06-04T17:08:46.079Z,65.70
2017-06-04T17:11:13.620Z,65.60
2017-06-04T17:13:41.171Z,65.30
2017-06-04T17:16:09.788Z,65.40
2017-06-04T17:18:37.479Z,64.40
2017-06-04T17:21:05.234Z,63.60
2017-06-04T17:23:32.844Z,63.30
2017-06-04T17:26:00.397Z,63.50
2017-06-04T17:28:27.935Z,64.10
2017-06-04T17:30:55.487Z,63.40
2017-06-04T17:33:23.799Z,64.50
2017-06-04T17:35:51.331Z,64.40
2017-06-04T17:38:18.881Z,65.70
2017-06-04T17:40:47.189Z,65.50
2017-06-04T17:43:14.739Z,65.50
2017-06-04T17:45:42.272Z,65.70
2017-06-04T17:48:10.582Z,65.70
2017-06-04T17:50:38.124Z,65.70
2017-06-04T17:53:05.670Z,66.30
2017-06-04T17:55:33.979Z,67.30
2017-06-04T17:58:01.525Z,67.20
2017-06-04T18:00:29.080Z,67.30
2017-06-04T18:02:56.632Z,67.80
2017-06-04T18:05:24.251Z,66.10
2017-06-04T18:07:51.802Z,65.30
2017-06-04T18:10:19.352Z,65.10
2017-06-04T18:12:46.888Z,65.50
2017-06-04T18:15:14.470Z,65.40
2017-06-04T18:17:42.012Z,64.70
2017-06-04T18:20:09.559Z,66.60
2017-06-04T18:22:37.102Z,68.90
2017-06-04T18:25:04.647Z,70.30
2017-06-04T18:27:32.957Z,69.60
2017-06-04T18:30:00.508Z,69.40
2017-06-04T18:32:28.076Z,69.00
2017-06-04T18:34:55.623Z,67.90
2017-06-04T18:37:23.159Z,68.00
2017-06-04T18:39:51.479Z,69.70
2017-06-04T18:42:19.012Z,69.60
2017-06-04T18:44:46.559Z,71.50
2017-06-04T18:47:14.099Z,72.10
2017-06-04T18:49:41.646Z,70.90
2017-06-04T18:52:09.235Z,71.20
2017-06-04T18:54:37.542Z,73.50
2017-06-04T18:57:05.098Z,73.50
2017-06-04T18:59:32.649Z,73.00
2017-06-04T19:02:00.215Z,72.80
2017-06-04T19:04:27.752Z,71.70
2017-06-04T19:06:55.608Z,73.00
2017-06-04T19:09:23.941Z,73.50
2017-06-04T19:11:51.493Z,73.40
2017-06-04T19:14:19.041Z,72.40
2017-06-04T19:16:46.582Z,71.10
2017-06-04T19:19:14.124Z,71.70
2017-06-04T19:21:41.660Z,70.60
2017-06-04T19:24:09.216Z,71.20
2017-06-04T19:26:36.764Z,70.50
2017-06-04T19:29:04.330Z,70.20
2017-06-04T19:31:31.873Z,70.90
2017-06-04T19:33:59.416Z,70.10
2017-06-04T19:36:26.956Z,69.80
2017-06-04T19:38:54.504Z,69.10
2017-06-04T19:41:22.065Z,69.20
2017-06-04T19:43:49.616Z,70.50
2017-06-04T19:46:17.158Z,70.60
2017-06-04T19:48:45.496Z,70.90
2017-06-04T19:51:13.056Z,70.80
2017-06-04T19:53:40.604Z,71.30
2017-06-04T19:56:08.153Z,71.50
2017-06-04T19:58:35.696Z,71.50
2017-06-04T20:01:03.236Z,72.00
2017-06-04T20:03:31.547Z,72.90
2017-06-04T20:05:59.134Z,72.80
2017-06-04T20:08:26.735Z,72.40
2017-06-04T20:10:54.288Z,72.10
2017-06-04T20:13:22.604Z,73.70
2017-06-04T20:15:50.967Z,73.60
2017-06-04T20:18:18.515Z,72.30
2017-06-04T20:20:46.100Z,71.90
2017-06-04T20:23:13.650Z,71.90
2017-06-04T20:25:41.200Z,71.70
2017-06-04T20:28:08.743Z,71.40
2017-06-04T20:30:36.284Z,71.40
2017-06-04T20:33:04.602Z,70.70
2017-06-04T20:35:32.192Z,70.60
2017-06-04T20:37:59.852Z,69.70
2017-06-04T20:40:27.417Z,70.20
2017-06-04T20:42:54.961Z,70.70
2017-06-04T20:45:23.298Z,70.20
2017-06-04T20:47:50.852Z,70.30
2017-06-04T20:50:18.432Z,69.10
2017-06-04T20:52:45.988Z,68.50
2017-06-04T20:55:13.532Z,67.90
2017-06-04T20:57:41.083Z,67.30
2017-06-04T21:00:09.388Z,67.30
2017-06-04T21:02:36.935Z,67.30
2017-06-04T21:05:04.483Z,68.30
2017-06-04T21:07:32.033Z,69.30
2017-06-04T21:10:00.449Z,69.00
2017-06-04T21:12:33.315Z,68.40
2017-06-04T21:15:00.866Z,68.10
2017-06-04T21:17:28.667Z,67.70
2017-06-04T21:19:56.212Z,68.10
2017-06-04T21:22:23.756Z,67.60
2017-06-04T21:24:51.311Z,67.50
2017-06-04T21:27:18.863Z,67.60
2017-06-04T21:29:46.420Z,67.50
2017-06-04T21:32:13.967Z,66.90
2017-06-04T21:34:42.271Z,68.30
2017-06-04T21:37:09.812Z,68.20
2017-06-04T21:39:37.359Z,68.60
2017-06-04T21:42:05.674Z,68.10
2017-06-04T21:44:33.215Z,68.00
2017-06-04T21:47:00.756Z,68.90
2017-06-04T21:49:29.066Z,69.10
2017-06-04T21:51:56.612Z,69.00
2017-06-04T21:54:24.166Z,68.80
2017-06-04T21:56:51.703Z,69.50
2017-06-04T21:59:20.007Z,68.00
2017-06-04T22:01:47.589Z,68.00
2017-06-04T22:04:15.141Z,68.70
2017-06-04T22:06:42.693Z,69.30
2017-06-04T22:09:10.251Z,68.50
2017-06-04T22:11:37.799Z,68.30
2017-06-04T22:14:05.344Z,68.80
2017-06-04T22:16:32.893Z,68.20
2017-06-04T22:19:01.207Z,68.00
2017-06-04T22:21:28.757Z,68.00
2017-06-04T22:23:56.293Z,69.00
2017-06-04T22:26:23.863Z,68.40
2017-06-04T22:28:51.406Z,67.70
2017-06-04T22:31:19.724Z,67.60
2017-06-04T22:33:47.281Z,67.50
2017-06-04T22:36:14.827Z,67.10
2017-06-04T22:38:42.384Z,67.70
2017-06-04T22:41:09.923Z,68.20
2017-06-04T22:43:37.480Z,68.10
2017-06-04T22:46:05.024Z,66.70
2017-06-04T22:48:33.343Z,67.00
2017-06-04T22:51:00.884Z,66.80
2017-06-04T22:53:28.436Z,67.00
2017-06-04T22:55:55.992Z,66.90
2017-06-04T22:58:23.544Z,65.80
2017-06-04T23:00:51.857Z,65.80
2017-06-04T23:03:19.411Z,65.70
2017-06-04T23:05:46.960Z,65.80
2017-06-04T23:08:14.530Z,65.60
2017-06-04T23:10:42.077Z,65.80
2017-06-04T23:13:09.619Z,66.10
2017-06-04T23:15:37.923Z,66.70
2017-06-04T23:18:05.465Z,66.60
2017-06-04T23:20:33.067Z,67.00
2017-06-04T23:23:00.612Z,66.80
2017-06-04T23:25:28.156Z,67.50
2017-06-04T23:27:55.705Z,68.20
2017-06-04T23:30:23.295Z,68.90
2017-06-04T23:32:50.849Z,69.80
2017-06-04T23:35:18.393Z,69.60
2017-06-04T23:37:45.931Z,69.80
2017-06-04T23:40:13.475Z,70.10
2017-06-04T23:42:41.778Z,69.30
2017-06-04T23:45:09.332Z,69.20
2017-06-04T23:47:36.880Z,69.50
2017-06-04T23:50:04.436Z,69.60
2017-06-04T23:52:31.984Z,69.40
2017-06-04T23:55:00.292Z,69.40
2017-06-04T23:57:27.849Z,69.20
2017-06-04T23:59:55.393Z,68.00
